createdAt,value
2023-03-20T00:01:36.555Z,4.77
2023-03-20T00:06:43.978Z,4.79
2023-03-20T00:11:53.552Z,4.77
2023-03-20T00:17:01.158Z,4.64
2023-03-20T00:22:10.226Z,4.57
2023-03-20T00:27:19.228Z,4.59
2023-03-20T00:32:27.128Z,4.62
2023-03-20T00:37:34.858Z,4.64
2023-03-20T00:42:43.612Z,4.64
2023-03-20T00:47:53.274Z,4.61
2023-03-20T00:53:01.790Z,4.60
2023-03-20T00:58:12.921Z,4.53
2023-03-20T01:03:23.542Z,4.43
2023-03-20T01:08:30.965Z,4.35
2023-03-20T01:13:40.012Z,4.29
2023-03-20T01:18:47.724Z,4.23
2023-03-20T01:23:55.307Z,4.19
2023-03-20T01:29:02.936Z,4.11
2023-03-20T01:34:12.597Z,4.03
2023-03-20T01:39:22.169Z,3.98
2023-03-20T01:44:32.869Z,3.81
2023-03-20T01:50:15.043Z,3.70
2023-03-20T01:55:25.245Z,3.68
2023-03-20T02:00:33.877Z,3.57
2023-03-20T02:05:44.264Z,3.56
2023-03-20T02:10:52.151Z,3.63
2023-03-20T02:16:07.718Z,3.70
2023-03-20T02:21:51.600Z,3.69
2023-03-20T02:27:11.366Z,3.75
2023-03-20T02:32:52.826Z,3.80
2023-03-20T02:38:39.640Z,3.82
2023-03-20T02:43:54.729Z,3.77
2023-03-20T02:49:08.522Z,3.72
2023-03-20T02:54:25.702Z,3.69
2023-03-20T02:59:41.004Z,3.68
2023-03-20T03:04:54.863Z,3.78
2023-03-20T03:10:07.413Z,3.89
2023-03-20T03:15:18.935Z,3.96
2023-03-20T03:20:30.475Z,4.00
2023-03-20T03:25:41.456Z,4.00
2023-03-20T03:30:50.191Z,3.98
2023-03-20T03:36:03.383Z,4.00
2023-03-20T03:41:25.583Z,3.88
2023-03-20T03:46:39.726Z,3.86
2023-03-20T03:51:52.383Z,3.89
2023-03-20T03:57:04.178Z,3.95
2023-03-20T04:02:13.113Z,3.98
2023-03-20T04:07:28.239Z,3.99
2023-03-20T04:12:39.730Z,3.98
2023-03-20T04:17:48.280Z,4.00
2023-03-20T04:22:56.329Z,4.02
2023-03-20T04:28:04.219Z,3.93
2023-03-20T04:33:11.854Z,3.79
2023-03-20T04:38:20.606Z,3.74
2023-03-20T04:43:28.684Z,3.76
2023-03-20T04:48:36.583Z,3.85
2023-03-20T04:53:44.097Z,3.94
2023-03-20T04:58:51.543Z,4.02
2023-03-20T05:04:01.329Z,3.98
2023-03-20T05:09:09.468Z,3.92
2023-03-20T05:14:17.002Z,3.95
2023-03-20T05:19:25.223Z,4.04
2023-03-20T05:24:32.945Z,4.12
2023-03-20T05:29:40.224Z,4.18
2023-03-20T05:34:47.651Z,4.27
2023-03-20T05:39:55.213Z,4.29
2023-03-20T05:45:02.545Z,4.32
2023-03-20T05:50:11.895Z,4.41
2023-03-20T05:55:19.783Z,4.50
2023-03-20T06:00:28.727Z,4.60
2023-03-20T06:05:37.277Z,4.68
2023-03-20T06:10:45.080Z,4.78
2023-03-20T06:15:52.838Z,4.85
2023-03-20T06:21:02.245Z,4.85
2023-03-20T06:26:10.265Z,4.89
2023-03-20T06:31:17.903Z,5.04
2023-03-20T06:36:25.807Z,5.29
2023-03-20T06:41:34.889Z,5.63
2023-03-20T06:46:42.798Z,5.96
2023-03-20T06:51:51.895Z,6.26
2023-03-20T06:56:59.840Z,6.56
2023-03-20T07:02:08.645Z,6.85
2023-03-20T07:07:16.224Z,7.19
2023-03-20T07:12:28.908Z,7.54
2023-03-20T07:17:36.290Z,7.82
2023-03-20T07:22:44.312Z,8.01
2023-03-20T07:27:51.577Z,8.22
2023-03-20T07:32:58.934Z,8.45
2023-03-20T07:44:14.704Z,9.31
2023-03-20T07:49:23.023Z,9.67
2023-03-20T07:54:30.553Z,9.94
2023-03-20T07:59:38.189Z,10.07
2023-03-20T08:04:46.723Z,10.19
2023-03-20T08:09:54.551Z,10.23
2023-03-20T08:15:02.344Z,10.20
2023-03-20T08:20:12.662Z,10.16
2023-03-20T08:25:20.479Z,10.06
2023-03-20T08:30:28.764Z,10.14
2023-03-20T08:35:37.002Z,10.33
2023-03-20T08:40:45.559Z,10.55
2023-03-20T08:45:53.714Z,10.81
2023-03-20T08:51:01.612Z,10.98
2023-03-20T08:56:11.564Z,11.00
2023-03-20T09:01:19.882Z,11.02
2023-03-20T09:06:27.324Z,11.06
2023-03-20T09:11:35.080Z,11.23
2023-03-20T09:16:43.024Z,11.45
2023-03-20T09:21:50.705Z,11.63
2023-03-20T09:26:58.986Z,11.78
2023-03-20T09:32:06.845Z,11.98
2023-03-20T09:37:14.789Z,12.20
2023-03-20T09:42:34.223Z,12.42
2023-03-20T09:47:51.500Z,12.56
2023-03-20T10:02:58.472Z,12.64
2023-03-20T10:08:06.594Z,12.66
2023-03-20T10:13:45.091Z,12.77
2023-03-20T10:18:58.039Z,12.83
2023-03-20T10:24:04.854Z,12.92
2023-03-20T10:29:23.139Z,12.91
2023-03-20T10:34:53.870Z,12.90
2023-03-20T10:40:14.517Z,12.95
2023-03-20T10:45:31.497Z,12.96
2023-03-20T10:50:42.147Z,13.00
2023-03-20T10:55:48.073Z,13.10
2023-03-20T11:00:57.102Z,13.19
2023-03-20T11:06:09.853Z,13.22
2023-03-20T11:11:21.231Z,13.21
2023-03-20T11:16:31.135Z,13.11
2023-03-20T11:21:46.565Z,12.98
2023-03-20T11:26:52.860Z,12.94
2023-03-20T11:32:07.411Z,12.95
2023-03-20T11:37:25.629Z,13.00
2023-03-20T11:42:31.466Z,13.05
2023-03-20T11:47:37.908Z,12.99
2023-03-20T11:52:44.093Z,13.02
2023-03-20T11:57:49.350Z,13.11
2023-03-20T12:02:54.060Z,13.16
2023-03-20T12:08:03.262Z,13.16
2023-03-20T12:13:14.802Z,13.21
2023-03-20T12:18:25.987Z,13.22
2023-03-20T12:23:35.305Z,13.23
2023-03-20T12:28:47.493Z,13.33
2023-03-20T12:33:57.183Z,13.39
2023-03-20T12:39:04.977Z,13.44
2023-03-20T12:44:26.704Z,13.48
2023-03-20T12:49:43.276Z,13.51
2023-03-20T12:55:06.002Z,13.63
2023-03-20T13:00:24.370Z,13.75
2023-03-20T13:05:37.346Z,13.81
2023-03-20T13:10:54.309Z,13.81
2023-03-20T13:16:09.958Z,13.79
2023-03-20T13:21:22.307Z,13.83
2023-03-20T13:26:37.043Z,13.89
2023-03-20T13:31:51.542Z,13.80
2023-03-20T13:37:22.369Z,13.69
2023-03-20T13:42:35.251Z,13.71
2023-03-20T13:47:40.426Z,13.75
2023-03-20T13:52:52.646Z,13.64
2023-03-20T13:58:15.514Z,13.40
2023-03-20T14:03:27.965Z,13.00
2023-03-20T14:08:36.824Z,12.69
2023-03-20T14:13:45.240Z,12.65
2023-03-20T14:19:03.919Z,12.69
2023-03-20T14:24:15.776Z,12.73
2023-03-20T14:29:35.102Z,12.77
2023-03-20T14:34:48.994Z,12.80
2023-03-20T14:44:31.981Z,12.86
2023-03-20T14:49:56.387Z,12.86
2023-03-20T14:55:32.067Z,12.91
2023-03-20T15:00:48.383Z,12.90
2023-03-20T15:06:00.693Z,12.88
2023-03-20T15:11:12.149Z,12.81
2023-03-20T15:16:27.408Z,12.74
2023-03-20T15:21:38.566Z,12.68
2023-03-20T15:26:46.287Z,12.62
2023-03-20T15:32:12.826Z,12.54
2023-03-20T15:37:25.164Z,12.45
2023-03-20T15:42:34.025Z,12.38
2023-03-20T15:47:43.750Z,12.32
2023-03-20T15:52:55.006Z,12.26
2023-03-20T15:58:04.388Z,12.21
2023-03-20T16:03:17.390Z,12.17
2023-03-20T16:08:27.354Z,12.16
2023-03-20T16:13:39.135Z,12.14
2023-03-20T16:18:49.110Z,12.11
2023-03-20T16:23:59.381Z,12.09
2023-03-20T16:29:08.437Z,12.06
2023-03-20T16:34:23.186Z,12.02
2023-03-20T16:39:32.635Z,11.97
2023-03-20T16:44:42.816Z,11.93
2023-03-20T16:50:12.253Z,11.90
2023-03-20T16:55:25.535Z,11.86
2023-03-20T17:00:42.913Z,11.81
2023-03-20T17:05:57.973Z,11.75
2023-03-20T17:11:12.038Z,11.71
2023-03-20T17:16:23.156Z,11.71
2023-03-20T17:21:31.766Z,11.67
2023-03-20T17:26:39.708Z,11.62
2023-03-20T17:31:47.626Z,11.58
2023-03-20T17:36:55.407Z,11.50
2023-03-20T17:42:02.735Z,11.43
2023-03-20T17:47:15.949Z,11.35
2023-03-20T17:52:26.318Z,11.29
2023-03-20T17:57:36.073Z,11.20
2023-03-20T18:02:43.785Z,11.09
2023-03-20T18:07:51.674Z,11.01
2023-03-20T18:12:59.722Z,10.90
2023-03-20T18:18:09.949Z,10.82
2023-03-20T18:23:18.433Z,10.76
2023-03-20T18:28:26.611Z,10.69
2023-03-20T18:33:34.579Z,10.59
2023-03-20T18:38:43.009Z,10.48
2023-03-20T18:43:51.942Z,10.39
2023-03-20T18:48:59.848Z,10.31
2023-03-20T18:54:07.967Z,10.28
2023-03-20T18:59:16.761Z,10.30
2023-03-20T19:04:27.029Z,10.31
2023-03-20T19:09:35.048Z,10.32
2023-03-20T19:14:43.546Z,10.28
2023-03-20T19:19:51.095Z,10.23
2023-03-20T19:24:58.845Z,10.16
2023-03-20T19:30:07.547Z,10.10
2023-03-20T19:35:50.312Z,10.06
2023-03-20T19:40:48.322Z,10.03
2023-03-20T19:45:58.804Z,10.02
2023-03-20T19:51:07.623Z,9.99
2023-03-20T19:56:17.820Z,9.93
2023-03-20T20:01:26.292Z,9.84
2023-03-20T20:06:35.176Z,9.77
2023-03-20T20:11:43.190Z,9.74
2023-03-20T20:16:52.859Z,9.70
2023-03-20T20:22:20.001Z,9.66
2023-03-20T20:27:31.731Z,9.65
2023-03-20T20:32:41.111Z,9.62
2023-03-20T20:45:18.413Z,9.63
2023-03-20T20:50:29.728Z,9.56
2023-03-20T20:55:37.545Z,9.45
2023-03-20T21:00:52.594Z,9.36
2023-03-20T21:06:07.410Z,9.35
2023-03-20T21:11:17.352Z,9.39
2023-03-20T21:16:25.724Z,9.42
2023-03-20T21:21:35.337Z,9.43
2023-03-20T21:26:43.576Z,9.42
2023-03-20T21:31:51.210Z,9.36
2023-03-20T21:37:00.214Z,9.29
2023-03-20T21:42:10.074Z,9.31
2023-03-20T21:53:45.925Z,9.34
2023-03-20T22:04:31.890Z,9.31
2023-03-20T22:09:52.096Z,9.28
2023-03-20T22:20:53.365Z,9.21
2023-03-20T22:31:48.063Z,9.16
2023-03-20T22:47:29.550Z,9.08
2023-03-20T22:52:48.499Z,9.06
2023-03-20T22:58:06.799Z,9.04
2023-03-20T23:03:29.509Z,9.00
2023-03-20T23:08:49.344Z,8.98
2023-03-20T23:14:01.009Z,8.95
2023-03-20T23:19:08.548Z,8.96
2023-03-20T23:24:17.189Z,8.98
2023-03-20T23:29:25.565Z,8.97
2023-03-20T23:34:34.235Z,8.96
2023-03-20T23:39:42.536Z,8.97
2023-03-20T23:44:56.299Z,8.94
2023-03-20T23:50:09.674Z,8.91
2023-03-20T23:55:21.791Z,8.92
